sensor_id;sensor_type;location;lat;lon;timestamp;temperature;humidity
210;DHT22;90;48.810;9.120;2022-08-04T00:01:30;26.40;51.60
210;DHT22;90;48.810;9.120;2022-08-04T00:04:01;26.40;51.80
210;DHT22;90;48.810;9.120;2022-08-04T00:06:51;26.40;51.80
210;DHT22;90;48.810;9.120;2022-08-04T00:09:28;26.30;52.20
210;DHT22;90;48.810;9.120;2022-08-04T00:11:57;26.20;52.30
210;DHT22;90;48.810;9.120;2022-08-04T00:14:29;26.20;52.10
210;DHT22;90;48.810;9.120;2022-08-04T00:17:03;26.20;51.90
210;DHT22;90;48.810;9.120;2022-08-04T00:19:37;26.20;51.60
210;DHT22;90;48.810;9.120;2022-08-04T00:22:09;26.20;51.60
210;DHT22;90;48.810;9.120;2022-08-04T00:24:38;26.20;51.80
210;DHT22;90;48.810;9.120;2022-08-04T00:27:06;26.30;51.80
210;DHT22;90;48.810;9.120;2022-08-04T00:29:38;26.20;52.60
210;DHT22;90;48.810;9.120;2022-08-04T00:32:06;26.20;52.60
210;DHT22;90;48.810;9.120;2022-08-04T00:34:34;26.20;52.60
210;DHT22;90;48.810;9.120;2022-08-04T00:37:03;26.10;52.20
210;DHT22;90;48.810;9.120;2022-08-04T00:39:32;26.10;51.50
210;DHT22;90;48.810;9.120;2022-08-04T00:42:31;26.10;52.00
210;DHT22;90;48.810;9.120;2022-08-04T00:45:20;26.10;52.50
210;DHT22;90;48.810;9.120;2022-08-04T00:48:03;25.90;53.20
210;DHT22;90;48.810;9.120;2022-08-04T00:50:43;25.90;53.40
210;DHT22;90;48.810;9.120;2022-08-04T00:53:22;25.80;53.30
210;DHT22;90;48.810;9.120;2022-08-04T00:58:54;25.80;53.60
210;DHT22;90;48.810;9.120;2022-08-04T01:01:46;25.80;53.50
210;DHT22;90;48.810;9.120;2022-08-04T01:04:35;25.70;54.20
210;DHT22;90;48.810;9.120;2022-08-04T01:07:17;25.60;54.50
210;DHT22;90;48.810;9.120;2022-08-04T01:09:55;25.60;54.30
210;DHT22;90;48.810;9.120;2022-08-04T01:12:47;25.60;54.90
210;DHT22;90;48.810;9.120;2022-08-04T01:15:23;25.50;54.90
210;DHT22;90;48.810;9.120;2022-08-04T01:18:04;25.40;55.40
210;DHT22;90;48.810;9.120;2022-08-04T01:20:33;25.30;55.60
210;DHT22;90;48.810;9.120;2022-08-04T01:23:31;25.30;55.60
210;DHT22;90;48.810;9.120;2022-08-04T01:26:24;25.30;55.70
210;DHT22;90;48.810;9.120;2022-08-04T01:29:05;25.20;55.70
210;DHT22;90;48.810;9.120;2022-08-04T01:31:51;25.20;55.90
210;DHT22;90;48.810;9.120;2022-08-04T01:34:21;25.20;55.80
210;DHT22;90;48.810;9.120;2022-08-04T01:36:57;25.20;55.80
210;DHT22;90;48.810;9.120;2022-08-04T01:39:33;25.10;56.00
210;DHT22;90;48.810;9.120;2022-08-04T01:42:08;25.20;55.50
210;DHT22;90;48.810;9.120;2022-08-04T01:44:40;25.20;55.50
210;DHT22;90;48.810;9.120;2022-08-04T01:47:08;25.00;56.40
210;DHT22;90;48.810;9.120;2022-08-04T01:49:37;25.00;56.30
210;DHT22;90;48.810;9.120;2022-08-04T01:52:08;25.00;56.30
210;DHT22;90;48.810;9.120;2022-08-04T01:54:40;25.00;56.00
210;DHT22;90;48.810;9.120;2022-08-04T01:57:09;25.00;56.10
210;DHT22;90;48.810;9.120;2022-08-04T01:59:43;25.10;56.00
210;DHT22;90;48.810;9.120;2022-08-04T02:02:14;25.10;55.90
210;DHT22;90;48.810;9.120;2022-08-04T02:04:41;25.10;55.90
210;DHT22;90;48.810;9.120;2022-08-04T02:07:19;25.10;55.20
210;DHT22;90;48.810;9.120;2022-08-04T02:10:02;25.10;55.90
210;DHT22;90;48.810;9.120;2022-08-04T02:12:45;25.10;56.00
210;DHT22;90;48.810;9.120;2022-08-04T02:15:26;25.00;56.40
210;DHT22;90;48.810;9.120;2022-08-04T02:18:01;25.00;56.20
210;DHT22;90;48.810;9.120;2022-08-04T02:20:32;25.00;56.20
210;DHT22;90;48.810;9.120;2022-08-04T02:23:02;25.00;56.10
210;DHT22;90;48.810;9.120;2022-08-04T02:25:35;24.90;56.40
210;DHT22;90;48.810;9.120;2022-08-04T02:28:15;24.90;56.70
210;DHT22;90;48.810;9.120;2022-08-04T02:30:59;24.90;57.10
210;DHT22;90;48.810;9.120;2022-08-04T02:33:34;24.90;57.20
210;DHT22;90;48.810;9.120;2022-08-04T02:36:04;24.70;57.50
210;DHT22;90;48.810;9.120;2022-08-04T02:38:55;24.70;57.70
210;DHT22;90;48.810;9.120;2022-08-04T02:41:26;24.70;57.50
210;DHT22;90;48.810;9.120;2022-08-04T02:43:56;24.60;57.70
210;DHT22;90;48.810;9.120;2022-08-04T02:46:26;24.70;57.60
210;DHT22;90;48.810;9.120;2022-08-04T02:48:54;24.50;58.10
210;DHT22;90;48.810;9.120;2022-08-04T02:51:24;24.60;57.80
210;DHT22;90;48.810;9.120;2022-08-04T02:53:53;24.60;57.80
210;DHT22;90;48.810;9.120;2022-08-04T02:56:22;24.70;57.60
210;DHT22;90;48.810;9.120;2022-08-04T02:58:52;24.60;57.70
210;DHT22;90;48.810;9.120;2022-08-04T03:01:22;24.60;57.70
210;DHT22;90;48.810;9.120;2022-08-04T03:04:05;24.60;57.70
210;DHT22;90;48.810;9.120;2022-08-04T03:07:06;24.50;58.00
210;DHT22;90;48.810;9.120;2022-08-04T03:10:03;24.40;58.70
210;DHT22;90;48.810;9.120;2022-08-04T03:12:56;24.30;58.70
210;DHT22;90;48.810;9.120;2022-08-04T03:15:54;24.20;58.90
210;DHT22;90;48.810;9.120;2022-08-04T03:19:21;24.20;59.20
210;DHT22;90;48.810;9.120;2022-08-04T03:25:10;23.90;59.90
210;DHT22;90;48.810;9.120;2022-08-04T03:31:04;23.90;59.50
210;DHT22;90;48.810;9.120;2022-08-04T03:34:02;23.80;59.90
210;DHT22;90;48.810;9.120;2022-08-04T03:37:02;23.80;60.10
210;DHT22;90;48.810;9.120;2022-08-04T03:40:03;23.60;60.40
210;DHT22;90;48.810;9.120;2022-08-04T03:42:43;23.60;60.70
210;DHT22;90;48.810;9.120;2022-08-04T03:46:01;23.60;60.60
210;DHT22;90;48.810;9.120;2022-08-04T03:51:37;23.60;60.60
210;DHT22;90;48.810;9.120;2022-08-04T03:55:17;23.50;60.90
210;DHT22;90;48.810;9.120;2022-08-04T04:01:03;23.50;61.00
210;DHT22;90;48.810;9.120;2022-08-04T04:03:51;23.40;61.00
210;DHT22;90;48.810;9.120;2022-08-04T04:06:45;23.40;61.20
210;DHT22;90;48.810;9.120;2022-08-04T04:12:33;23.40;61.00
210;DHT22;90;48.810;9.120;2022-08-04T04:15:18;23.40;60.70
210;DHT22;90;48.810;9.120;2022-08-04T04:18:14;23.40;60.70
210;DHT22;90;48.810;9.120;2022-08-04T04:21:07;23.40;60.40
210;DHT22;90;48.810;9.120;2022-08-04T04:26:56;23.50;60.20
210;DHT22;90;48.810;9.120;2022-08-04T04:29:49;23.50;60.10
210;DHT22;90;48.810;9.120;2022-08-04T04:32:26;23.50;60.00
210;DHT22;90;48.810;9.120;2022-08-04T04:35:18;23.60;59.90
210;DHT22;90;48.810;9.120;2022-08-04T04:38:00;23.60;60.00
210;DHT22;90;48.810;9.120;2022-08-04T04:40:37;23.70;59.90
210;DHT22;90;48.810;9.120;2022-08-04T04:43:41;23.60;60.20
210;DHT22;90;48.810;9.120;2022-08-04T04:46:29;23.70;60.00
210;DHT22;90;48.810;9.120;2022-08-04T04:49:07;23.80;59.80
210;DHT22;90;48.810;9.120;2022-08-04T04:51:41;23.80;59.80
210;DHT22;90;48.810;9.120;2022-08-04T04:54:13;23.90;59.70
210;DHT22;90;48.810;9.120;2022-08-04T04:56:49;24.00;59.30
210;DHT22;90;48.810;9.120;2022-08-04T04:59:22;24.00;59.60
210;DHT22;90;48.810;9.120;2022-08-04T05:02:15;24.00;60.10
210;DHT22;90;48.810;9.120;2022-08-04T05:04:58;24.10;59.70
210;DHT22;90;48.810;9.120;2022-08-04T05:08:01;24.10;59.30
210;DHT22;90;48.810;9.120;2022-08-04T05:10:45;24.30;59.30
210;DHT22;90;48.810;9.120;2022-08-04T05:13:32;24.40;58.80
210;DHT22;90;48.810;9.120;2022-08-04T05:16:04;24.50;58.50
210;DHT22;90;48.810;9.120;2022-08-04T05:18:37;24.60;59.20
210;DHT22;90;48.810;9.120;2022-08-04T05:21:13;24.70;58.40
210;DHT22;90;48.810;9.120;2022-08-04T05:23:48;24.80;57.90
210;DHT22;90;48.810;9.120;2022-08-04T05:26:18;24.90;58.00
210;DHT22;90;48.810;9.120;2022-08-04T05:28:50;24.90;58.10
210;DHT22;90;48.810;9.120;2022-08-04T05:31:27;25.00;58.00
210;DHT22;90;48.810;9.120;2022-08-04T05:33:59;25.00;58.10
210;DHT22;90;48.810;9.120;2022-08-04T05:36:33;25.10;58.20
210;DHT22;90;48.810;9.120;2022-08-04T05:39:02;25.10;58.40
210;DHT22;90;48.810;9.120;2022-08-04T05:41:30;25.10;58.30
210;DHT22;90;48.810;9.120;2022-08-04T05:44:00;25.20;58.10
210;DHT22;90;48.810;9.120;2022-08-04T05:46:28;25.20;58.40
210;DHT22;90;48.810;9.120;2022-08-04T05:49:04;25.30;58.50
210;DHT22;90;48.810;9.120;2022-08-04T05:51:33;25.40;58.50
210;DHT22;90;48.810;9.120;2022-08-04T05:54:01;25.50;58.20
210;DHT22;90;48.810;9.120;2022-08-04T05:56:29;25.50;58.20
210;DHT22;90;48.810;9.120;2022-08-04T05:59:02;25.60;58.10
210;DHT22;90;48.810;9.120;2022-08-04T06:01:30;25.70;58.20
210;DHT22;90;48.810;9.120;2022-08-04T06:03:58;25.70;58.00
210;DHT22;90;48.810;9.120;2022-08-04T06:06:29;25.80;58.20
210;DHT22;90;48.810;9.120;2022-08-04T06:08:57;25.90;58.00
210;DHT22;90;48.810;9.120;2022-08-04T06:11:26;25.90;57.80
210;DHT22;90;48.810;9.120;2022-08-04T06:13:56;25.90;57.30
210;DHT22;90;48.810;9.120;2022-08-04T06:16:25;26.00;57.50
210;DHT22;90;48.810;9.120;2022-08-04T06:18:55;26.00;57.50
210;DHT22;90;48.810;9.120;2022-08-04T06:21:27;26.00;57.50
210;DHT22;90;48.810;9.120;2022-08-04T06:23:56;26.20;57.30
210;DHT22;90;48.810;9.120;2022-08-04T06:26:25;26.20;56.90
210;DHT22;90;48.810;9.120;2022-08-04T06:28:53;26.20;57.00
210;DHT22;90;48.810;9.120;2022-08-04T06:31:22;26.30;56.90
210;DHT22;90;48.810;9.120;2022-08-04T06:34:10;26.40;56.50
210;DHT22;90;48.810;9.120;2022-08-04T06:36:40;26.50;56.60
210;DHT22;90;48.810;9.120;2022-08-04T06:39:09;26.60;56.40
210;DHT22;90;48.810;9.120;2022-08-04T06:41:37;26.70;56.00
210;DHT22;90;48.810;9.120;2022-08-04T06:44:08;26.70;55.80
210;DHT22;90;48.810;9.120;2022-08-04T06:46:37;26.70;55.80
210;DHT22;90;48.810;9.120;2022-08-04T06:49:06;26.80;55.70
210;DHT22;90;48.810;9.120;2022-08-04T06:51:35;26.80;55.40
210;DHT22;90;48.810;9.120;2022-08-04T06:54:04;26.90;55.40
210;DHT22;90;48.810;9.120;2022-08-04T06:56:33;26.90;55.20
210;DHT22;90;48.810;9.120;2022-08-04T06:59:01;27.00;54.90
210;DHT22;90;48.810;9.120;2022-08-04T07:01:29;27.00;54.60
210;DHT22;90;48.810;9.120;2022-08-04T07:03:58;27.10;54.60
210;DHT22;90;48.810;9.120;2022-08-04T07:06:25;27.20;54.30
210;DHT22;90;48.810;9.120;2022-08-04T07:08:53;27.20;54.10
210;DHT22;90;48.810;9.120;2022-08-04T07:11:22;27.30;53.90
210;DHT22;90;48.810;9.120;2022-08-04T07:13:50;27.50;53.50
210;DHT22;90;48.810;9.120;2022-08-04T07:16:19;27.60;53.00
210;DHT22;90;48.810;9.120;2022-08-04T07:18:47;27.70;52.70
210;DHT22;90;48.810;9.120;2022-08-04T07:21:21;27.90;52.10
210;DHT22;90;48.810;9.120;2022-08-04T07:23:49;28.00;51.10
210;DHT22;90;48.810;9.120;2022-08-04T07:26:16;28.10;50.70
210;DHT22;90;48.810;9.120;2022-08-04T07:28:46;28.20;50.10
210;DHT22;90;48.810;9.120;2022-08-04T07:31:17;28.40;48.00
210;DHT22;90;48.810;9.120;2022-08-04T07:33:46;28.50;46.60
210;DHT22;90;48.810;9.120;2022-08-04T07:36:14;28.60;46.40
210;DHT22;90;48.810;9.120;2022-08-04T07:38:42;28.70;46.30
210;DHT22;90;48.810;9.120;2022-08-04T07:41:10;28.80;45.70
210;DHT22;90;48.810;9.120;2022-08-04T07:43:37;29.00;45.50
210;DHT22;90;48.810;9.120;2022-08-04T07:46:09;29.10;45.70
210;DHT22;90;48.810;9.120;2022-08-04T07:48:36;29.10;45.40
210;DHT22;90;48.810;9.120;2022-08-04T07:51:04;29.30;44.90
210;DHT22;90;48.810;9.120;2022-08-04T07:53:32;29.30;45.00
210;DHT22;90;48.810;9.120;2022-08-04T07:56:00;29.40;44.90
210;DHT22;90;48.810;9.120;2022-08-04T07:58:28;29.40;44.30
210;DHT22;90;48.810;9.120;2022-08-04T08:00:55;29.40;44.10
210;DHT22;90;48.810;9.120;2022-08-04T08:03:24;29.50;44.10
210;DHT22;90;48.810;9.120;2022-08-04T08:05:54;29.60;43.90
210;DHT22;90;48.810;9.120;2022-08-04T08:08:21;29.70;43.40
210;DHT22;90;48.810;9.120;2022-08-04T08:10:48;29.80;43.70
210;DHT22;90;48.810;9.120;2022-08-04T08:13:15;29.90;43.00
210;DHT22;90;48.810;9.120;2022-08-04T08:15:44;30.00;43.10
210;DHT22;90;48.810;9.120;2022-08-04T08:18:12;30.00;42.40
210;DHT22;90;48.810;9.120;2022-08-04T08:20:43;30.20;42.80
210;DHT22;90;48.810;9.120;2022-08-04T08:23:11;30.30;42.30
210;DHT22;90;48.810;9.120;2022-08-04T08:25:38;30.30;41.90
210;DHT22;90;48.810;9.120;2022-08-04T08:28:06;30.30;42.20
210;DHT22;90;48.810;9.120;2022-08-04T08:30:36;30.40;42.00
210;DHT22;90;48.810;9.120;2022-08-04T08:33:06;30.50;41.80
210;DHT22;90;48.810;9.120;2022-08-04T08:35:43;30.50;42.20
210;DHT22;90;48.810;9.120;2022-08-04T08:38:14;30.60;42.20
210;DHT22;90;48.810;9.120;2022-08-04T08:40:49;30.60;41.90
210;DHT22;90;48.810;9.120;2022-08-04T08:43:39;30.70;41.10
210;DHT22;90;48.810;9.120;2022-08-04T08:46:31;30.70;41.10
210;DHT22;90;48.810;9.120;2022-08-04T08:52:25;30.90;40.50
210;DHT22;90;48.810;9.120;2022-08-04T08:55:12;30.90;40.70
210;DHT22;90;48.810;9.120;2022-08-04T08:57:49;30.90;40.80
210;DHT22;90;48.810;9.120;2022-08-04T09:00:27;30.90;40.40
210;DHT22;90;48.810;9.120;2022-08-04T09:03:26;31.00;40.80
210;DHT22;90;48.810;9.120;2022-08-04T09:09:06;31.20;40.60
210;DHT22;90;48.810;9.120;2022-08-04T09:11:39;31.30;40.40
210;DHT22;90;48.810;9.120;2022-08-04T09:14:14;31.50;40.30
210;DHT22;90;48.810;9.120;2022-08-04T09:16:48;31.50;39.80
210;DHT22;90;48.810;9.120;2022-08-04T09:19:22;31.50;39.50
210;DHT22;90;48.810;9.120;2022-08-04T09:22:00;31.50;39.80
210;DHT22;90;48.810;9.120;2022-08-04T09:24:39;31.60;39.50
210;DHT22;90;48.810;9.120;2022-08-04T09:27:19;31.60;39.10
210;DHT22;90;48.810;9.120;2022-08-04T09:29:52;31.60;39.00
210;DHT22;90;48.810;9.120;2022-08-04T09:32:32;31.60;39.40
210;DHT22;90;48.810;9.120;2022-08-04T09:35:11;31.70;39.00
210;DHT22;90;48.810;9.120;2022-08-04T09:37:45;31.80;39.40
210;DHT22;90;48.810;9.120;2022-08-04T09:40:21;31.90;39.90
210;DHT22;90;48.810;9.120;2022-08-04T09:43:00;32.00;39.40
210;DHT22;90;48.810;9.120;2022-08-04T09:45:35;32.00;38.40
210;DHT22;90;48.810;9.120;2022-08-04T09:48:07;32.20;38.90
210;DHT22;90;48.810;9.120;2022-08-04T09:50:37;32.20;38.80
210;DHT22;90;48.810;9.120;2022-08-04T09:56:04;32.40;38.50
210;DHT22;90;48.810;9.120;2022-08-04T09:58:43;32.60;38.40
210;DHT22;90;48.810;9.120;2022-08-04T10:01:15;32.50;38.20
210;DHT22;90;48.810;9.120;2022-08-04T10:03:48;32.60;38.70
210;DHT22;90;48.810;9.120;2022-08-04T10:09:26;32.80;37.30
210;DHT22;90;48.810;9.120;2022-08-04T10:12:06;33.00;37.40
210;DHT22;90;48.810;9.120;2022-08-04T10:14:42;33.00;37.00
210;DHT22;90;48.810;9.120;2022-08-04T10:17:33;32.90;36.10
210;DHT22;90;48.810;9.120;2022-08-04T10:20:10;32.90;36.90
210;DHT22;90;48.810;9.120;2022-08-04T10:22:42;32.80;36.80
210;DHT22;90;48.810;9.120;2022-08-04T10:25:23;32.80;36.80
210;DHT22;90;48.810;9.120;2022-08-04T10:27:59;32.90;37.00
210;DHT22;90;48.810;9.120;2022-08-04T10:30:29;32.80;36.60
210;DHT22;90;48.810;9.120;2022-08-04T10:33:02;32.90;37.30
210;DHT22;90;48.810;9.120;2022-08-04T10:35:34;33.00;37.70
210;DHT22;90;48.810;9.120;2022-08-04T10:38:09;33.00;35.00
210;DHT22;90;48.810;9.120;2022-08-04T10:40:41;32.90;36.10
210;DHT22;90;48.810;9.120;2022-08-04T10:43:21;32.90;36.00
210;DHT22;90;48.810;9.120;2022-08-04T10:45:56;33.00;36.10
210;DHT22;90;48.810;9.120;2022-08-04T10:48:33;33.00;36.30
210;DHT22;90;48.810;9.120;2022-08-04T10:51:08;33.10;36.50
210;DHT22;90;48.810;9.120;2022-08-04T10:53:38;33.10;36.50
210;DHT22;90;48.810;9.120;2022-08-04T10:56:22;33.00;38.00
210;DHT22;90;48.810;9.120;2022-08-04T10:59:02;33.00;38.70
210;DHT22;90;48.810;9.120;2022-08-04T11:01:32;32.80;38.70
210;DHT22;90;48.810;9.120;2022-08-04T11:04:06;32.60;38.40
210;DHT22;90;48.810;9.120;2022-08-04T11:06:35;32.40;38.90
210;DHT22;90;48.810;9.120;2022-08-04T11:09:04;32.30;39.20
210;DHT22;90;48.810;9.120;2022-08-04T11:11:38;32.20;39.50
210;DHT22;90;48.810;9.120;2022-08-04T11:14:12;32.20;39.50
210;DHT22;90;48.810;9.120;2022-08-04T11:16:43;32.10;39.60
210;DHT22;90;48.810;9.120;2022-08-04T11:19:22;32.10;39.90
210;DHT22;90;48.810;9.120;2022-08-04T11:21:55;32.10;40.10
210;DHT22;90;48.810;9.120;2022-08-04T11:24:29;32.00;39.60
210;DHT22;90;48.810;9.120;2022-08-04T11:27:04;32.00;39.10
210;DHT22;90;48.810;9.120;2022-08-04T11:29:39;32.00;38.60
210;DHT22;90;48.810;9.120;2022-08-04T11:32:14;32.10;38.50
210;DHT22;90;48.810;9.120;2022-08-04T11:34:46;32.00;38.20
210;DHT22;90;48.810;9.120;2022-08-04T11:37:17;32.00;38.20
210;DHT22;90;48.810;9.120;2022-08-04T11:39:50;32.10;38.00
210;DHT22;90;48.810;9.120;2022-08-04T11:42:20;32.30;37.50
210;DHT22;90;48.810;9.120;2022-08-04T11:44:54;32.30;37.40
210;DHT22;90;48.810;9.120;2022-08-04T11:47:28;32.40;37.00
210;DHT22;90;48.810;9.120;2022-08-04T11:50:02;32.60;37.30
210;DHT22;90;48.810;9.120;2022-08-04T11:52:31;32.90;37.40
210;DHT22;90;48.810;9.120;2022-08-04T11:55:03;33.20;36.10
210;DHT22;90;48.810;9.120;2022-08-04T11:57:31;33.30;37.00
210;DHT22;90;48.810;9.120;2022-08-04T12:00:01;33.50;37.60
210;DHT22;90;48.810;9.120;2022-08-04T12:05:26;33.80;34.80
210;DHT22;90;48.810;9.120;2022-08-04T12:08:01;33.90;34.80
210;DHT22;90;48.810;9.120;2022-08-04T12:10:40;34.00;34.00
210;DHT22;90;48.810;9.120;2022-08-04T12:13:15;34.10;34.80
210;DHT22;90;48.810;9.120;2022-08-04T12:15:55;34.20;34.20
210;DHT22;90;48.810;9.120;2022-08-04T12:18:29;34.40;34.30
210;DHT22;90;48.810;9.120;2022-08-04T12:21:00;34.40;34.40
210;DHT22;90;48.810;9.120;2022-08-04T12:23:32;34.50;33.70
210;DHT22;90;48.810;9.120;2022-08-04T12:26:05;34.50;33.60
210;DHT22;90;48.810;9.120;2022-08-04T12:28:36;34.50;33.60
210;DHT22;90;48.810;9.120;2022-08-04T12:31:11;34.50;33.60
210;DHT22;90;48.810;9.120;2022-08-04T12:33:46;34.60;33.70
210;DHT22;90;48.810;9.120;2022-08-04T12:36:20;34.80;33.00
210;DHT22;90;48.810;9.120;2022-08-04T12:38:51;34.90;32.80
210;DHT22;90;48.810;9.120;2022-08-04T12:41:23;34.90;32.30
210;DHT22;90;48.810;9.120;2022-08-04T12:43:51;34.70;32.60
210;DHT22;90;48.810;9.120;2022-08-04T12:46:22;34.50;32.40
210;DHT22;90;48.810;9.120;2022-08-04T12:48:50;34.40;32.90
210;DHT22;90;48.810;9.120;2022-08-04T12:51:18;34.40;33.10
210;DHT22;90;48.810;9.120;2022-08-04T12:53:48;34.60;32.80
210;DHT22;90;48.810;9.120;2022-08-04T12:56:24;34.70;33.00
210;DHT22;90;48.810;9.120;2022-08-04T12:58:53;34.90;33.40
210;DHT22;90;48.810;9.120;2022-08-04T13:01:27;34.90;33.10
210;DHT22;90;48.810;9.120;2022-08-04T13:03:56;35.00;32.30
210;DHT22;90;48.810;9.120;2022-08-04T13:06:29;35.00;31.80
210;DHT22;90;48.810;9.120;2022-08-04T13:09:04;35.10;32.50
210;DHT22;90;48.810;9.120;2022-08-04T13:11:35;35.30;31.60
210;DHT22;90;48.810;9.120;2022-08-04T13:14:03;35.50;31.30
210;DHT22;90;48.810;9.120;2022-08-04T13:16:33;35.50;30.80
210;DHT22;90;48.810;9.120;2022-08-04T13:19:00;35.40;31.10
210;DHT22;90;48.810;9.120;2022-08-04T13:21:29;35.20;30.60
210;DHT22;90;48.810;9.120;2022-08-04T13:24:01;35.20;31.20
210;DHT22;90;48.810;9.120;2022-08-04T13:26:29;35.30;32.10
210;DHT22;90;48.810;9.120;2022-08-04T13:28:59;35.30;32.20
210;DHT22;90;48.810;9.120;2022-08-04T13:31:28;35.40;32.00
210;DHT22;90;48.810;9.120;2022-08-04T13:34:05;35.50;31.30
210;DHT22;90;48.810;9.120;2022-08-04T13:36:34;35.60;31.20
210;DHT22;90;48.810;9.120;2022-08-04T13:39:05;35.50;31.20
210;DHT22;90;48.810;9.120;2022-08-04T13:41:35;35.40;31.50
210;DHT22;90;48.810;9.120;2022-08-04T13:44:06;35.40;31.90
210;DHT22;90;48.810;9.120;2022-08-04T13:46:39;35.20;32.10
210;DHT22;90;48.810;9.120;2022-08-04T13:49:11;35.20;32.40
210;DHT22;90;48.810;9.120;2022-08-04T13:51:39;35.50;32.40
210;DHT22;90;48.810;9.120;2022-08-04T13:54:06;35.70;31.00
210;DHT22;90;48.810;9.120;2022-08-04T13:56:37;35.80;31.50
210;DHT22;90;48.810;9.120;2022-08-04T13:59:07;36.00;30.90
210;DHT22;90;48.810;9.120;2022-08-04T14:01:37;36.10;30.40
210;DHT22;90;48.810;9.120;2022-08-04T14:04:13;36.20;30.50
210;DHT22;90;48.810;9.120;2022-08-04T14:06:46;36.20;30.90
210;DHT22;90;48.810;9.120;2022-08-04T14:09:16;36.30;30.10
210;DHT22;90;48.810;9.120;2022-08-04T14:11:46;36.40;29.80
210;DHT22;90;48.810;9.120;2022-08-04T14:14:17;36.50;29.60
210;DHT22;90;48.810;9.120;2022-08-04T14:16:56;36.60;29.40
210;DHT22;90;48.810;9.120;2022-08-04T14:19:25;36.70;29.40
210;DHT22;90;48.810;9.120;2022-08-04T14:21:52;36.80;29.00
210;DHT22;90;48.810;9.120;2022-08-04T14:24:23;36.80;29.20
210;DHT22;90;48.810;9.120;2022-08-04T14:26:51;37.00;29.80
210;DHT22;90;48.810;9.120;2022-08-04T14:29:20;37.10;29.40
210;DHT22;90;48.810;9.120;2022-08-04T14:31:48;37.30;28.70
210;DHT22;90;48.810;9.120;2022-08-04T14:34:26;37.30;28.70
210;DHT22;90;48.810;9.120;2022-08-04T14:36:54;37.40;29.00
210;DHT22;90;48.810;9.120;2022-08-04T14:39:38;37.30;28.40
210;DHT22;90;48.810;9.120;2022-08-04T14:42:06;37.40;28.40
210;DHT22;90;48.810;9.120;2022-08-04T14:44:51;37.30;28.70
210;DHT22;90;48.810;9.120;2022-08-04T14:47:24;37.20;28.50
210;DHT22;90;48.810;9.120;2022-08-04T14:49:55;36.90;28.80
210;DHT22;90;48.810;9.120;2022-08-04T14:52:23;36.70;29.30
210;DHT22;90;48.810;9.120;2022-08-04T14:54:50;36.80;30.30
210;DHT22;90;48.810;9.120;2022-08-04T14:57:20;37.00;29.10
210;DHT22;90;48.810;9.120;2022-08-04T14:59:48;37.10;28.40
210;DHT22;90;48.810;9.120;2022-08-04T15:02:15;37.30;28.20
210;DHT22;90;48.810;9.120;2022-08-04T15:04:45;37.40;28.90
210;DHT22;90;48.810;9.120;2022-08-04T15:07:13;37.60;28.10
210;DHT22;90;48.810;9.120;2022-08-04T15:09:41;37.80;27.90
210;DHT22;90;48.810;9.120;2022-08-04T15:12:09;37.90;29.10
210;DHT22;90;48.810;9.120;2022-08-04T15:14:36;38.00;28.40
210;DHT22;90;48.810;9.120;2022-08-04T15:17:05;38.10;28.00
210;DHT22;90;48.810;9.120;2022-08-04T15:19:32;38.20;27.80
210;DHT22;90;48.810;9.120;2022-08-04T15:22:01;38.10;27.60
210;DHT22;90;48.810;9.120;2022-08-04T15:24:30;38.10;28.30
210;DHT22;90;48.810;9.120;2022-08-04T15:26:59;38.20;27.90
210;DHT22;90;48.810;9.120;2022-08-04T15:29:30;38.30;27.60
210;DHT22;90;48.810;9.120;2022-08-04T15:32:02;38.30;28.00
210;DHT22;90;48.810;9.120;2022-08-04T15:34:46;38.40;28.60
210;DHT22;90;48.810;9.120;2022-08-04T15:37:17;38.50;27.50
210;DHT22;90;48.810;9.120;2022-08-04T15:39:51;38.00;27.90
210;DHT22;90;48.810;9.120;2022-08-04T15:42:30;37.80;27.80
210;DHT22;90;48.810;9.120;2022-08-04T15:45:18;37.70;28.30
210;DHT22;90;48.810;9.120;2022-08-04T15:51:09;38.10;28.00
210;DHT22;90;48.810;9.120;2022-08-04T15:56:49;38.60;27.10
210;DHT22;90;48.810;9.120;2022-08-04T15:59:54;38.80;26.90
210;DHT22;90;48.810;9.120;2022-08-04T16:05:33;39.00;26.10
210;DHT22;90;48.810;9.120;2022-08-04T16:08:10;38.90;26.20
210;DHT22;90;48.810;9.120;2022-08-04T16:10:40;38.90;26.40
210;DHT22;90;48.810;9.120;2022-08-04T16:13:10;39.10;26.30
210;DHT22;90;48.810;9.120;2022-08-04T16:15:44;39.20;26.40
210;DHT22;90;48.810;9.120;2022-08-04T16:21:06;39.20;26.00
210;DHT22;90;48.810;9.120;2022-08-04T16:26:51;39.50;26.10
210;DHT22;90;48.810;9.120;2022-08-04T16:29:36;39.70;25.80
210;DHT22;90;48.810;9.120;2022-08-04T16:32:21;39.80;26.20
210;DHT22;90;48.810;9.120;2022-08-04T16:34:55;39.90;26.10
210;DHT22;90;48.810;9.120;2022-08-04T16:37:29;39.70;24.90
210;DHT22;90;48.810;9.120;2022-08-04T16:40:23;39.40;25.80
210;DHT22;90;48.810;9.120;2022-08-04T16:42:52;39.50;26.10
210;DHT22;90;48.810;9.120;2022-08-04T16:45:21;39.50;25.80
210;DHT22;90;48.810;9.120;2022-08-04T16:48:02;39.60;26.20
210;DHT22;90;48.810;9.120;2022-08-04T16:50:33;39.70;27.00
210;DHT22;90;48.810;9.120;2022-08-04T16:53:15;39.80;25.50
210;DHT22;90;48.810;9.120;2022-08-04T16:55:54;39.90;25.00
210;DHT22;90;48.810;9.120;2022-08-04T16:58:27;40.00;24.80
210;DHT22;90;48.810;9.120;2022-08-04T17:01:07;40.10;25.40
210;DHT22;90;48.810;9.120;2022-08-04T17:03:36;40.20;26.30
210;DHT22;90;48.810;9.120;2022-08-04T17:06:09;40.10;26.60
210;DHT22;90;48.810;9.120;2022-08-04T17:08:39;40.00;26.30
210;DHT22;90;48.810;9.120;2022-08-04T17:11:06;40.00;25.80
210;DHT22;90;48.810;9.120;2022-08-04T17:13:36;39.80;25.60
210;DHT22;90;48.810;9.120;2022-08-04T17:16:07;39.70;26.30
210;DHT22;90;48.810;9.120;2022-08-04T17:18:36;39.60;25.90
210;DHT22;90;48.810;9.120;2022-08-04T17:21:05;39.50;25.60
210;DHT22;90;48.810;9.120;2022-08-04T17:23:36;39.60;26.40
210;DHT22;90;48.810;9.120;2022-08-04T17:26:08;39.60;26.30
210;DHT22;90;48.810;9.120;2022-08-04T17:28:35;39.60;26.50
210;DHT22;90;48.810;9.120;2022-08-04T17:31:06;39.70;26.70
210;DHT22;90;48.810;9.120;2022-08-04T17:33:35;39.60;26.40
210;DHT22;90;48.810;9.120;2022-08-04T17:36:04;39.60;27.50
210;DHT22;90;48.810;9.120;2022-08-04T17:38:36;39.50;27.30
210;DHT22;90;48.810;9.120;2022-08-04T17:41:06;39.50;27.30
210;DHT22;90;48.810;9.120;2022-08-04T17:43:43;39.40;26.30
210;DHT22;90;48.810;9.120;2022-08-04T17:46:24;39.30;27.90
210;DHT22;90;48.810;9.120;2022-08-04T17:48:57;39.00;28.60
210;DHT22;90;48.810;9.120;2022-08-04T17:51:32;38.90;28.50
210;DHT22;90;48.810;9.120;2022-08-04T17:54:00;38.70;29.10
210;DHT22;90;48.810;9.120;2022-08-04T17:56:29;38.60;29.30
210;DHT22;90;48.810;9.120;2022-08-04T17:59:10;38.30;29.60
210;DHT22;90;48.810;9.120;2022-08-04T18:01:57;38.30;29.30
210;DHT22;90;48.810;9.120;2022-08-04T18:04:33;38.10;29.80
210;DHT22;90;48.810;9.120;2022-08-04T18:07:04;37.90;30.30
210;DHT22;90;48.810;9.120;2022-08-04T18:09:35;37.70;29.80
210;DHT22;90;48.810;9.120;2022-08-04T18:12:05;37.50;30.60
210;DHT22;90;48.810;9.120;2022-08-04T18:14:41;37.50;31.70
210;DHT22;90;48.810;9.120;2022-08-04T18:17:12;37.20;33.50
210;DHT22;90;48.810;9.120;2022-08-04T18:19:49;36.90;34.70
210;DHT22;90;48.810;9.120;2022-08-04T18:22:18;36.60;35.20
210;DHT22;90;48.810;9.120;2022-08-04T18:24:45;36.30;35.90
210;DHT22;90;48.810;9.120;2022-08-04T18:27:12;36.00;36.00
210;DHT22;90;48.810;9.120;2022-08-04T18:29:39;35.40;36.70
210;DHT22;90;48.810;9.120;2022-08-04T18:32:11;35.40;36.70
210;DHT22;90;48.810;9.120;2022-08-04T18:34:39;35.10;37.10